Blue Moon Trail Run #3 5K                           
                                 Overall Female                                 
                                 August 25, 2017                                

Please look over the results carefully and let us know If you notice any problems in the results, please send an e-mail to
Mike Shafai at raceresults@pprrun.org.

For other questions about the race, please contact the race director via the contacts page at
http://www.ppcf.org/calendars/events/32-the-blue-moon-trail-run

Course: This is a twilight run under the full, blue moon in beautiful Ute Valley Park. A true trail run for all ability levels.
The 5K and 10K run will navigate through the best features of the park and will be run exclusively along natural surfaces.
The course is challenging with lots of climbing, rocks, sand, twists and turns.

Weather: Sunny and warm.  Temps around 80 at the start and dropping slightly.

OPlc GPlc AGPlc AGrp   Bib  Name               Age Sex City             St Gun     Chip    Pace    
   3    1     1 F10-19 3302 Aubrey Surage       14  F  Colorado Springs CO 0:25:05 0:25:05 0:08:05 
   6    2     1 F30-39 3303 Veronica Valverde   36  F  Colorado Springs CO 0:27:10 0:27:08 0:08:45 
   8    3     2 F30-39 3268 Veronica Inguez     30  F  Colorado Springs CO 0:28:40 0:28:37 0:09:14 
  10    4     3 F30-39 3261 Beat Guerrero       31  F  Colorado Springs CO 0:28:55 0:28:53 0:09:19 
  11    5     1 F40-49 3242 Wendy Bulow         45  F  Colorado Springs CO 0:33:38 0:30:05 0:09:42 
  13    6     4 F30-39 3331 Stacy Looper        35  F  Colorado Springs CO 0:30:36 0:30:34 0:09:52 
  14    7     1 F20-29 3267 Linnea Ingram       22  F  Colorado Springs CO 0:32:25 0:32:20 0:10:26 
  15    8     2 F20-29 3269 Alondra Iniguez     28  F  Colorado Springs CO 0:32:31 0:32:28 0:10:28 
  16    9     3 F20-29 3249 Lexi Christensen    28  F  Exira            IA 0:32:33 0:32:28 0:10:28 
  18   10     4 F20-29 3332 Ana Agustin         25  F  Pueblo           CO 0:32:53 0:32:51 0:10:36 
  19   11     2 F40-49 3243 Erin Burke          49  F  Colorado Springs CO 0:33:47 0:33:43 0:10:53 
  20   12     5 F30-39 3251 Kenia Cruz          34  F  Colorado Springs CO 0:34:20 0:34:17 0:11:04 
  21   13     6 F30-39 3330 Yanira Munoz        30  F  Colorado Springs CO 0:34:29 0:34:26 0:11:06 
  22   14     7 F30-39 3283 Erica Mulder        39  F  Colorado Springs CO 0:34:28 0:34:27 0:11:07 
  23   15     5 F20-29 3237 Cendy Angeles       29  F  Colorado Springs CO 0:34:33 0:34:29 0:11:07 
  25   16     1 F50-59 3296 Linda Ronas         52  F  Divide           CO 0:36:39 0:36:29 0:11:46 
  26   17     6 F20-29 3276 Blanca Maximiliano  20  F  Colorado Springs CO 0:37:27 0:37:25 0:12:04 
  27   18     3 F40-49 3280 Melissa Meleason    43  F  Colorado Springs CO 0:37:33 0:37:26 0:12:05 
  30   19     7 F20-29 3263 Isabel Hernandez    27  F  Colorado Springs CO 0:37:37 0:37:32 0:12:06 
  31   20     4 F40-49 3291 Susan Ramirez       41  F  Colorado Springs CO 0:37:40 0:37:38 0:12:08 

OPlc GPlc AGPlc AGrp   Bib  Name               Age Sex City             St Gun     Chip    Pace    
  32   21     1 F60-69 3288 Karen Pringle       60  F  Colorado Springs CO 0:37:48 0:37:43 0:12:10 
  33   22     2 F50-59 3256 Adriana Dippins     55  F  Colorado Springs CO 0:38:30 0:38:28 0:12:25 
  36   23     5 F40-49 3300 Veronica Salinas    45  F  Colorado Springs CO 0:39:45 0:39:42 0:12:48 
  37   24     3 F50-59 3308 Nancy Pickett       57  F  Colorado Springs CO 0:40:32 0:40:21 0:13:01 
  38   25     8 F20-29 3307 Alisha Pickett      23  F  Colorado Springs CO 0:40:31 0:40:21 0:13:01 
  39   26     6 F40-49 3295 Rosalba Rios        44  F  Colorado Springs CO 0:40:38 0:40:36 0:13:06 
  40   27     7 F40-49 3282 Cyndi Morris        43  F  Colorado Springs CO 0:41:15 0:41:07 0:13:16 
  41   28     8 F40-49 3238 Leticia Aranda      48  F  Colorado Springs CO 0:41:10 0:41:08 0:13:16 
  42   29     8 F30-39 6944 Valene Russo        35  F  Colorado Springs CO 0:41:23 0:41:09 0:13:16 
  43   30     9 F30-39 3265 Bethany Herndon     32  F  Colorado Springs CO 0:41:23 0:41:12 0:13:17 
  45   31    10 F30-39 3254 Cindy Dicus         39  F  Colorado Springs CO 0:41:25 0:41:16 0:13:19 
  47   32     4 F50-59 3240 Janae Brown         50  F  Florence         CO 0:42:33 0:42:22 0:13:40 
  48   33     2 F60-69 3312 Rosa Valle          61  F  Colorado Springs CO 0:44:49 0:44:44 0:14:26 
  49   34     9 F20-29 3259 Gloria Flores       25  F  Colorado Springs CO 0:46:01 0:45:57 0:14:49 
  50   35     9 F40-49 3306 Ilamarie Wolusky    42  F  USAFA            CO 0:49:28 0:49:22 0:15:55 
  52   36    10 F20-29 3305 Nicole Watson       25  F  Colorado Springs CO 0:50:32 0:50:19 0:16:14 
  54   37    10 F40-49 3285 Andromeda Pasch     47  F  Colorado Springs CO 0:59:06 0:58:50 0:18:59